Time;durP1;ratioP1;P1;durP2;ratioP2;P2;SDS_P1;SDS_P2;PMS_P1;PMS_P2;Temp;Humidity;BMP_temperature;BMP_pressure;BME280_temperature;BME280_humidity;BME280_pressure;Samples;Min_cycle;Max_cycle;Signal;HPM_P1;HPM_P2
2023/06/30 00:00:11;;;;;;;4.50;3.13;;;20.80;96.10;;;20.84;85.57;96846.56;5015035;28;20025;-39
2023/06/30 00:02:41;;;;;;;3.72;2.83;;;20.80;96.30;;;20.82;85.26;96845.81;5022177;28;20423;-39
2023/06/30 00:05:09;;;;;;;4.28;3.00;;;20.80;96.00;;;20.79;84.75;96838.91;5018466;28;20424;-39
2023/06/30 00:07:34;;;;;;;4.05;2.63;;;20.80;96.30;;;20.85;83.60;96842.88;5016161;28;20025;-39
2023/06/30 00:10:00;;;;;;;5.40;3.00;;;20.80;95.70;;;20.86;83.33;96842.75;5014259;28;20211;-40
2023/06/30 00:12:26;;;;;;;3.80;2.72;;;20.80;95.70;;;20.87;83.96;96835.53;5018090;28;20029;-40
2023/06/30 00:14:51;;;;;;;4.05;2.70;;;20.80;95.80;;;20.84;84.25;96831.31;5021120;28;20399;-38
2023/06/30 00:17:17;;;;;;;4.43;2.92;;;20.80;95.90;;;20.64;84.79;96806.28;5021851;28;20067;-39
2023/06/30 00:19:43;;;;;;;4.07;2.65;;;20.80;96.00;;;20.76;84.95;96834.66;5022401;28;20379;-40
2023/06/30 00:22:09;;;;;;;3.40;2.75;;;20.70;96.00;;;20.72;85.70;96830.53;5021349;28;20513;-38
2023/06/30 00:24:35;;;;;;;3.28;2.70;;;20.70;96.20;;;20.68;85.10;96818.41;5017057;28;20025;-40
2023/06/30 00:27:00;;;;;;;3.97;2.70;;;20.70;96.20;;;20.62;85.46;96816.28;5016722;28;20485;-39
2023/06/30 00:29:26;;;;;;;4.72;2.65;;;20.60;96.20;;;20.56;85.36;96814.91;5020665;28;20090;-39
2023/06/30 00:31:52;;;;;;;4.45;3.20;;;20.60;96.20;;;20.50;86.22;96817.31;5018990;28;20411;-38
2023/06/30 00:34:17;;;;;;;4.03;3.05;;;20.50;96.40;;;20.43;87.05;96808.09;5017980;28;20037;-38
2023/06/30 00:36:43;;;;;;;3.60;2.92;;;20.40;96.60;;;20.35;88.13;96798.03;5017255;28;20514;-39
2023/06/30 00:39:09;;;;;;;4.25;2.92;;;20.30;96.80;;;20.26;88.63;96797.03;5012717;28;20040;-40
2023/06/30 00:41:34;;;;;;;5.70;2.75;;;20.20;96.90;;;20.18;88.78;96800.34;5019324;28;20033;-38
2023/06/30 00:44:01;;;;;;;4.20;3.22;;;20.20;97.00;;;20.12;90.70;96794.69;5020029;28;20037;-38
2023/06/30 00:46:28;;;;;;;5.07;3.00;;;20.10;97.40;;;20.06;91.73;96790.66;5021230;28;20051;-38
2023/06/30 00:48:53;;;;;;;5.35;2.90;;;20.10;97.70;;;19.99;92.47;96787.69;5017967;28;20064;-39
2023/06/30 00:51:19;;;;;;;3.65;2.67;;;20.00;97.90;;;19.94;92.31;96784.53;5017160;28;20160;-38
2023/06/30 00:53:45;;;;;;;3.85;2.70;;;19.90;97.90;;;19.89;93.99;96776.06;5018994;28;20303;-38
2023/06/30 00:56:11;;;;;;;4.07;3.05;;;19.90;98.20;;;19.84;94.58;96775.59;5019281;28;20410;-38
2023/06/30 00:58:37;;;;;;;3.63;2.53;;;19.80;98.40;;;19.79;94.62;96769.78;5021508;28;20033;-38
2023/06/30 01:01:12;;;;;;;4.40;2.97;;;19.80;98.50;;;19.75;95.26;96768.34;5023047;28;20026;-38
2023/06/30 01:03:47;;;;;;;3.45;2.65;;;19.70;98.70;;;19.71;96.13;96772.22;5021857;28;20395;-40
2023/06/30 01:06:37;;;;;;;4.07;2.92;;;19.70;98.90;;;19.66;96.64;96775.28;5002301;28;20083;-38
2023/06/30 01:09:13;;;;;;;4.30;2.78;;;19.70;99.00;;;19.60;96.51;96767.78;5016285;28;20189;-38
2023/06/30 01:11:40;;;;;;;5.40;3.08;;;19.60;99.10;;;19.58;96.69;96770.59;5019651;28;20124;-40
2023/06/30 01:14:08;;;;;;;3.55;2.97;;;19.60;99.10;;;19.56;96.16;96769.00;5019321;28;20074;-38
2023/06/30 01:16:34;;;;;;;3.58;2.60;;;19.50;99.10;;;19.46;96.34;96748.38;5022568;28;20040;-39
2023/06/30 01:19:06;;;;;;;4.45;2.85;;;19.50;99.20;;;19.53;97.11;96762.09;5010981;28;20061;-39
2023/06/30 01:21:32;;;;;;;5.13;3.22;;;19.50;99.40;;;19.50;98.57;96762.34;5007665;28;20025;-39
2023/06/30 01:24:09;;;;;;;5.50;3.05;;;19.50;99.70;;;19.48;99.39;96758.94;5021451;28;20149;-40
2023/06/30 01:26:35;;;;;;;5.18;3.25;;;19.50;99.90;;;19.44;99.71;96755.69;5004933;28;20064;-38
2023/06/30 01:29:03;;;;;;;5.10;3.88;;;19.40;99.90;;;19.41;98.79;96760.44;5017769;28;20143;-38
2023/06/30 01:31:31;;;;;;;6.70;3.50;;;19.40;99.90;;;19.39;99.61;96754.38;5004422;28;20037;-39
2023/06/30 01:34:00;;;;;;;4.00;3.10;;;19.40;99.90;;;19.36;100.00;96755.47;5022470;28;20129;-38
2023/06/30 01:36:26;;;;;;;4.18;3.10;;;19.40;99.90;;;19.35;100.00;96747.59;5018919;28;20580;-38
2023/06/30 01:38:52;;;;;;;4.93;3.55;;;19.40;99.90;;;19.24;100.00;96735.94;5045589;22;20081;-37
2023/06/30 01:41:20;;;;;;;4.70;3.22;;;19.40;99.90;;;19.34;100.00;96754.72;5021374;28;20127;-38
2023/06/30 01:43:47;;;;;;;7.85;3.38;;;19.30;99.90;;;19.27;100.00;96742.84;5027627;28;20120;-37
2023/06/30 01:46:13;;;;;;;5.22;3.55;;;19.40;99.90;;;19.30;100.00;96752.47;5001068;28;20059;-39
2023/06/30 01:48:40;;;;;;;4.45;2.97;;;19.30;99.90;;;19.27;100.00;96742.84;5013366;28;20386;-38
2023/06/30 01:51:09;;;;;;;3.88;3.05;;;19.30;99.90;;;19.23;100.00;96744.94;5004015;28;20028;-37
2023/06/30 01:53:34;;;;;;;4.35;2.92;;;19.30;99.90;;;19.18;100.00;96739.09;5020990;28;20041;-37
2023/06/30 01:56:00;;;;;;;3.55;2.83;;;19.20;99.90;;;19.16;100.00;96745.56;5025196;28;20091;-37
2023/06/30 01:58:26;;;;;;;5.07;3.20;;;19.20;99.90;;;19.12;100.00;96744.97;5006719;28;20033;-38
2023/06/30 02:00:51;;;;;;;4.88;3.03;;;19.10;99.90;;;19.10;100.00;96735.41;5024218;28;20040;-37
2023/06/30 02:03:17;;;;;;;4.82;3.13;;;19.10;99.90;;;19.06;100.00;96732.97;5018215;28;20829;-37
2023/06/30 02:05:43;;;;;;;3.80;3.30;;;19.10;99.90;;;19.03;100.00;96735.03;5021404;28;20030;-37
2023/06/30 02:08:08;;;;;;;5.15;3.40;;;19.10;99.90;;;18.99;100.00;96731.78;5019700;28;20647;-38
2023/06/30 02:10:34;;;;;;;4.72;3.15;;;19.00;99.90;;;18.95;100.00;96738.34;4998715;28;20782;-37
2023/06/30 02:13:00;;;;;;;7.25;3.50;;;19.00;99.90;;;18.92;100.00;96735.91;5013875;28;20045;-37
2023/06/30 02:15:26;;;;;;;5.88;3.67;;;18.90;99.90;;;18.87;100.00;96727.41;5019889;28;20234;-37
2023/06/30 02:17:51;;;;;;;7.00;3.42;;;18.90;99.90;;;18.85;100.00;96734.72;5021038;28;20028;-38
2023/06/30 02:20:17;;;;;;;6.38;4.40;;;18.90;99.90;;;18.81;100.00;96742.13;5017158;28;20036;-37
2023/06/30 02:22:43;;;;;;;6.90;3.80;;;18.80;99.90;;;18.77;100.00;96737.97;5021874;28;20220;-37
2023/06/30 02:25:09;;;;;;;8.07;3.97;;;18.80;99.90;;;18.75;100.00;96739.91;5018764;28;20032;-37
2023/06/30 02:27:35;;;;;;;9.88;4.40;;;18.70;99.90;;;18.70;100.00;96744.78;5024918;28;20107;-37
2023/06/30 02:30:04;;;;;;;7.05;4.43;;;18.80;99.90;;;18.68;100.00;96738.69;5021483;28;20028;-37
2023/06/30 02:32:37;;;;;;;6.03;4.00;;;18.70;99.90;;;18.62;100.00;96731.19;5025181;28;20111;-38
2023/06/30 02:35:08;;;;;;;5.15;4.00;;;18.70;99.90;;;18.66;100.00;96744.19;5023461;28;20033;-37
2023/06/30 02:37:34;;;;;;;6.50;4.30;;;18.70;99.90;;;18.63;100.00;96741.75;5022651;28;20029;-38
2023/06/30 02:40:00;;;;;;;5.20;3.95;;;18.70;99.90;;;18.63;100.00;96748.94;5025316;28;20473;-37
2023/06/30 02:42:25;;;;;;;6.70;4.13;;;18.70;99.90;;;18.61;100.00;96750.84;5021551;28;20036;-37
2023/06/30 02:44:51;;;;;;;6.68;4.30;;;18.70;99.90;;;18.59;100.00;96755.47;5020990;28;20055;-37
2023/06/30 02:47:17;;;;;;;4.55;3.63;;;18.60;99.90;;;18.58;100.00;96749.28;5015181;28;20022;-37
2023/06/30 02:49:42;;;;;;;6.10;3.75;;;18.60;99.90;;;18.56;100.00;96745.03;5019553;28;20036;-38
2023/06/30 02:52:09;;;;;;;5.90;4.45;;;18.60;99.90;;;18.60;100.00;96743.81;5015710;28;20045;-37
2023/06/30 02:54:34;;;;;;;6.95;3.88;;;18.60;99.90;;;18.58;100.00;96743.09;5018282;28;20033;-38
2023/06/30 02:57:00;;;;;;;4.93;3.10;;;18.60;99.90;;;18.55;100.00;96744.19;5025251;28;20029;-37
2023/06/30 02:59:26;;;;;;;4.57;3.45;;;18.60;99.90;;;18.54;100.00;96745.16;5028337;28;20033;-38
2023/06/30 03:01:51;;;;;;;3.70;3.05;;;18.60;99.90;;;18.52;100.00;96739.09;5020615;28;20084;-38
2023/06/30 03:04:17;;;;;;;4.50;3.20;;;18.60;99.90;;;18.50;100.00;96744.56;5024135;28;20025;-38
2023/06/30 03:06:43;;;;;;;5.55;3.25;;;18.50;99.90;;;18.49;100.00;96742.84;5025772;28;20040;-38
2023/06/30 03:09:08;;;;;;;8.90;3.53;;;18.50;99.90;;;18.46;100.00;96731.56;5022237;28;20075;-37
2023/06/30 03:11:34;;;;;;;6.93;3.75;;;18.50;99.90;;;18.43;100.00;96735.34;5024328;28;20041;-37
2023/06/30 03:14:00;;;;;;;5.00;4.00;;;18.50;99.90;;;18.41;100.00;96726.59;5027965;28;20044;-37
2023/06/30 03:16:26;;;;;;;6.03;3.60;;;18.50;99.90;;;18.39;100.00;96725.00;5023397;28;20033;-37
2023/06/30 03:18:52;;;;;;;6.18;3.63;;;18.40;99.90;;;18.36;100.00;96714.56;5010493;28;20029;-37
2023/06/30 03:21:18;;;;;;;6.75;4.25;;;18.40;99.90;;;18.34;100.00;96709.38;5022266;28;20973;-37
2023/06/30 03:23:45;;;;;;;6.95;3.83;;;18.40;99.90;;;18.34;100.00;96709.38;5024404;28;20036;-37
2023/06/30 03:26:13;;;;;;;4.65;3.70;;;18.40;99.90;;;18.33;100.00;96705.00;5016059;28;21046;-37
2023/06/30 03:28:39;;;;;;;5.00;3.40;;;18.40;99.90;;;18.30;100.00;96699.91;5027168;28;20041;-37
2023/06/30 03:31:04;;;;;;;10.93;3.88;;;18.40;99.90;;;18.30;100.00;96706.09;5024148;28;20025;-37
2023/06/30 03:33:30;;;;;;;6.95;4.10;;;18.40;99.90;;;18.28;100.00;96704.50;5023597;28;20044;-37
2023/06/30 03:35:56;;;;;;;4.28;3.17;;;18.30;99.90;;;18.29;100.00;96703.56;5028017;28;20052;-37
2023/06/30 03:38:21;;;;;;;4.22;3.50;;;18.40;99.90;;;18.33;100.00;96705.00;5023253;28;20032;-37
2023/06/30 03:40:47;;;;;;;6.32;3.78;;;18.40;99.90;;;18.33;100.00;96705.00;5027395;28;20029;-37
2023/06/30 03:43:13;;;;;;;4.35;3.53;;;18.40;99.90;;;18.34;100.00;96701.38;5020902;28;20822;-36
2023/06/30 03:45:39;;;;;;;4.82;3.58;;;18.40;99.90;;;18.37;100.00;96700.25;5025510;28;20029;-37
2023/06/30 03:48:05;;;;;;;4.97;3.75;;;18.40;99.90;;;18.40;100.00;96700.03;5022083;28;20372;-37
2023/06/30 03:50:30;;;;;;;5.65;4.10;;;18.40;99.90;;;18.44;100.00;96696.13;5022243;28;20033;-37
2023/06/30 03:52:56;;;;;;;5.88;3.60;;;18.50;99.90;;;18.46;100.00;96702.19;5024299;28;20037;-37
2023/06/30 03:55:22;;;;;;;4.90;3.58;;;18.50;99.90;;;18.48;100.00;96708.25;5025644;28;20121;-37
2023/06/30 03:57:48;;;;;;;5.47;3.67;;;18.50;99.90;;;18.49;100.00;96715.31;5022112;28;20054;-37
2023/06/30 04:00:14;;;;;;;4.60;3.47;;;18.50;99.90;;;18.50;100.00;96717.00;5017265;28;20064;-37
2023/06/30 04:02:40;;;;;;;6.13;3.55;;;18.60;99.90;;;18.53;100.00;96711.41;5023098;28;20116;-37
2023/06/30 04:05:06;;;;;;;4.72;3.72;;;18.60;99.90;;;18.60;100.00;96711.78;5020087;28;20038;-37
2023/06/30 04:07:32;;;;;;;4.25;3.28;;;18.70;99.90;;;18.68;100.00;96715.53;5024258;28;20037;-37
2023/06/30 04:09:57;;;;;;;5.85;3.80;;;18.70;99.90;;;18.76;100.00;96717.56;5025305;28;20044;-37
2023/06/30 04:12:23;;;;;;;5.10;3.47;;;18.80;99.90;;;18.86;100.00;96718.56;5022352;28;20041;-37
2023/06/30 04:14:49;;;;;;;4.57;3.45;;;18.90;99.90;;;18.96;100.00;96717.81;5024453;28;20052;-37
2023/06/30 04:17:14;;;;;;;6.55;3.50;;;19.00;99.90;;;19.06;100.00;96718.75;5012130;28;20312;-37
2023/06/30 04:19:40;;;;;;;6.47;4.10;;;19.10;99.90;;;19.16;100.00;96714.34;5020937;28;20506;-37
2023/06/30 04:22:06;;;;;;;6.05;3.60;;;19.20;99.90;;;19.28;100.00;96712.47;5020060;28;20052;-38
2023/06/30 04:24:31;;;;;;;6.72;3.95;;;19.30;99.90;;;19.32;100.00;96702.38;5003333;28;20106;-39
2023/06/30 04:26:57;;;;;;;5.00;3.63;;;19.40;99.90;;;19.45;100.00;96709.25;5018057;28;20774;-37
2023/06/30 04:29:23;;;;;;;5.03;3.90;;;19.50;99.90;;;19.58;100.00;96719.78;5023734;28;20041;-37
2023/06/30 04:31:50;;;;;;;5.05;3.58;;;19.70;99.90;;;19.65;100.00;96718.28;5036319;28;20116;-37
2023/06/30 04:34:15;;;;;;;5.50;3.83;;;19.70;99.90;;;19.67;100.00;96725.31;5032678;28;20131;-37
2023/06/30 04:36:41;;;;;;;7.05;3.92;;;19.70;99.90;;;19.72;100.00;96728.44;5034441;28;21200;-37
2023/06/30 04:39:07;;;;;;;4.72;3.90;;;19.80;99.90;;;19.74;100.00;96721.16;5014567;28;20361;-37
2023/06/30 04:41:32;;;;;;;7.63;3.55;;;19.80;99.90;;;19.74;100.00;96723.84;5017210;28;21015;-37
2023/06/30 04:43:59;;;;;;;4.15;3.45;;;19.80;99.90;;;19.75;100.00;96729.06;5036956;28;20030;-37
2023/06/30 04:46:26;;;;;;;4.25;3.42;;;19.80;99.90;;;19.71;100.00;96718.72;5030912;28;21234;-37
2023/06/30 04:48:52;;;;;;;5.80;3.78;;;19.80;99.90;;;19.74;100.00;96714.00;5016597;28;20035;-37
2023/06/30 04:51:19;;;;;;;5.10;3.70;;;19.80;99.90;;;19.79;100.00;96725.16;5024979;28;20041;-37
2023/06/30 04:53:45;;;;;;;6.47;3.13;;;19.80;99.90;;;19.82;99.45;96722.22;5030175;28;20150;-37
2023/06/30 04:56:10;;;;;;;4.32;3.13;;;19.90;99.90;;;19.87;97.20;96721.00;5022882;28;20067;-38
2023/06/30 04:58:36;;;;;;;5.50;3.55;;;19.90;99.90;;;19.88;96.93;96718.16;5027346;28;20503;-37
2023/06/30 05:01:04;;;;;;;6.47;3.95;;;20.00;99.90;;;19.90;94.51;96718.91;5022728;28;20029;-37
2023/06/30 05:03:30;;;;;;;7.18;3.47;;;20.00;99.90;;;19.87;92.89;96719.16;5025193;28;20401;-37
2023/06/30 05:05:57;;;;;;;8.43;3.70;;;20.00;99.90;;;19.95;92.49;96732.72;5028262;28;20041;-37
2023/06/30 05:08:23;;;;;;;5.15;3.83;;;20.00;99.90;;;19.96;92.62;96726.38;5023228;28;20897;-37
2023/06/30 05:10:49;;;;;;;5.25;4.65;;;20.00;99.90;;;19.93;95.70;96721.28;5014863;28;21230;-37
2023/06/30 05:13:15;;;;;;;6.45;4.40;;;20.00;99.90;;;19.89;98.30;96721.69;5025720;28;20028;-37
2023/06/30 05:15:40;;;;;;;6.85;3.85;;;20.00;99.90;;;19.82;100.00;96726.72;5023639;28;20037;-37
2023/06/30 05:18:06;;;;;;;6.72;4.45;;;19.90;99.90;;;19.71;100.00;96729.44;5026740;28;20033;-37
2023/06/30 05:20:33;;;;;;;7.18;5.07;;;19.80;99.90;;;19.50;100.00;96732.91;5003298;28;20025;-37
2023/06/30 05:23:00;;;;;;;8.38;4.97;;;19.60;99.90;;;19.17;100.00;96715.22;5024548;28;20040;-36
2023/06/30 05:25:25;;;;;;;7.45;4.60;;;19.40;99.90;;;19.03;100.00;96730.53;5019670;28;20044;-37
2023/06/30 05:27:51;;;;;;;6.82;5.40;;;19.10;99.90;;;18.84;100.00;96733.00;5023030;28;20029;-37
2023/06/30 05:30:18;;;;;;;12.57;5.88;;;18.90;99.90;;;18.66;100.00;96736.19;5019940;28;20529;-37
2023/06/30 05:32:43;;;;;;;14.20;6.55;;;18.80;99.90;;;18.44;100.00;96739.69;5016782;28;20029;-37
2023/06/30 05:35:09;;;;;;;9.75;6.13;;;18.60;99.90;;;18.26;100.00;96742.00;5024161;28;20814;-39
2023/06/30 05:37:36;;;;;;;7.80;5.93;;;18.40;99.90;;;18.09;100.00;96748.66;5034865;28;20748;-38
2023/06/30 05:40:03;;;;;;;5.15;4.65;;;18.20;99.90;;;17.97;100.00;96736.25;5032038;28;20033;-37
2023/06/30 05:42:28;;;;;;;6.13;5.30;;;18.10;99.90;;;17.95;100.00;96742.69;5033487;28;20051;-37
2023/06/30 05:44:54;;;;;;;9.40;6.15;;;18.10;99.90;;;17.92;100.00;96744.63;5033686;28;20495;-37
2023/06/30 05:47:20;;;;;;;9.70;6.10;;;18.00;99.90;;;17.96;100.00;96745.22;5025249;28;20078;-37
2023/06/30 05:49:46;;;;;;;6.55;5.65;;;18.00;99.90;;;17.98;100.00;96753.97;5029929;28;20041;-38
2023/06/30 05:52:11;;;;;;;7.18;4.88;;;18.00;99.90;;;17.98;100.00;96753.97;5031359;28;20264;-37
2023/06/30 05:54:37;;;;;;;6.68;5.38;;;18.10;99.90;;;17.91;100.00;96753.59;5031338;28;20041;-37
2023/06/30 05:57:03;;;;;;;11.73;7.32;;;18.10;99.90;;;17.95;100.00;96778.22;5030226;28;20034;-37
2023/06/30 05:59:30;;;;;;;9.27;6.07;;;18.10;99.90;;;17.92;100.00;96783.78;5008296;28;20486;-37
2023/06/30 06:01:56;;;;;;;9.10;6.07;;;18.00;99.90;;;17.95;100.00;96785.38;5032604;28;20484;-37
2023/06/30 06:04:22;;;;;;;8.15;6.63;;;18.00;99.90;;;17.95;100.00;96780.06;5031909;28;20029;-37
2023/06/30 06:06:48;;;;;;;9.73;6.40;;;18.10;99.90;;;17.99;100.00;96781.50;5030025;28;20048;-37
2023/06/30 06:09:13;;;;;;;7.90;6.38;;;18.10;99.90;;;17.93;100.00;96772.16;5027580;28;20052;-37
2023/06/30 06:11:39;;;;;;;9.02;6.05;;;18.10;99.90;;;18.04;100.00;96768.66;5022779;28;20036;-39
2023/06/30 06:14:05;;;;;;;9.52;6.03;;;18.10;99.90;;;18.05;100.00;96767.69;5027139;28;20032;-37
2023/06/30 06:16:31;;;;;;;11.77;7.10;;;18.20;99.90;;;18.13;100.00;96776.78;5024287;28;20450;-39
2023/06/30 06:18:56;;;;;;;7.55;6.10;;;18.20;99.90;;;18.18;100.00;96773.78;5026163;28;20156;-37
2023/06/30 06:21:27;;;;;;;11.10;6.57;;;18.30;99.90;;;18.23;100.00;96771.59;5027117;28;20033;-38
2023/06/30 06:23:53;;;;;;;8.45;6.07;;;18.30;99.90;;;18.21;100.00;96759.34;5034744;28;20037;-39
2023/06/30 06:26:19;;;;;;;10.63;6.30;;;18.40;99.90;;;18.38;100.00;96776.72;5027062;28;20058;-37
2023/06/30 06:28:45;;;;;;;8.27;6.18;;;18.50;99.90;;;18.43;100.00;96779.84;5029484;28;20486;-36
2023/06/30 06:31:10;;;;;;;10.57;7.07;;;18.50;99.90;;;18.40;100.00;96767.59;5030030;28;20337;-37
2023/06/30 06:33:36;;;;;;;7.93;6.03;;;18.60;99.90;;;18.58;100.00;96778.66;5018543;28;20040;-37
2023/06/30 06:36:02;;;;;;;9.32;6.68;;;18.70;99.90;;;18.58;100.00;96770.63;5020810;28;20140;-38
2023/06/30 06:38:28;;;;;;;9.90;6.10;;;18.80;99.90;;;18.76;100.00;96779.00;5026379;28;20036;-37
2023/06/30 06:40:53;;;;;;;8.68;6.43;;;18.90;99.90;;;18.85;100.00;96788.97;5018071;28;20096;-37
2023/06/30 06:43:24;;;;;;;10.68;7.22;;;19.10;99.90;;;18.97;100.00;96780.94;5027458;28;20040;-37
2023/06/30 06:45:49;;;;;;;8.35;6.18;;;19.20;99.90;;;19.09;100.00;96785.28;5025271;28;20518;-37
2023/06/30 06:48:26;;;;;;;9.88;6.32;;;19.20;99.90;;;19.30;100.00;96787.22;5027199;28;20033;-38
2023/06/30 06:50:58;;;;;;;9.70;6.88;;;19.40;99.90;;;19.48;100.00;96790.19;5004377;28;20036;-38
2023/06/30 06:53:35;;;;;;;10.20;7.32;;;19.60;99.90;;;19.62;100.00;96800.59;5024562;28;20081;-37
2023/06/30 06:56:03;;;;;;;6.88;5.80;;;19.70;99.90;;;19.70;100.00;96797.28;5027908;28;20036;-38
2023/06/30 06:58:31;;;;;;;9.88;6.80;;;19.80;99.90;;;19.57;100.00;96766.19;5028243;28;20476;-37
2023/06/30 07:00:57;;;;;;;7.57;6.43;;;19.90;99.90;;;19.77;100.00;96804.69;5027684;28;20395;-38
2023/06/30 07:03:23;;;;;;;10.23;7.07;;;19.90;99.90;;;19.86;100.00;96802.22;5022552;28;20387;-37
2023/06/30 07:05:49;;;;;;;13.13;7.57;;;19.90;99.90;;;19.90;100.00;96793.81;5030350;28;20068;-37
2023/06/30 07:08:18;;;;;;;8.25;6.70;;;20.00;99.90;;;20.07;100.00;96810.28;5021641;28;20041;-38
2023/06/30 07:10:45;;;;;;;11.43;6.68;;;20.10;99.90;;;20.15;100.00;96807.78;5025485;28;20033;-37
2023/06/30 07:13:12;;;;;;;10.73;6.07;;;20.20;99.90;;;20.24;100.00;96796.28;5025501;28;20044;-37
2023/06/30 07:15:38;;;;;;;6.15;5.38;;;20.40;99.90;;;20.36;100.00;96802.41;5026229;28;20566;-37
2023/06/30 07:18:04;;;;;;;9.73;6.78;;;20.50;99.90;;;20.46;100.00;96797.09;5025776;28;20021;-37
2023/06/30 07:20:29;;;;;;;11.88;7.28;;;20.60;99.90;;;20.57;100.00;96797.03;5026946;28;20060;-38
2023/06/30 07:22:56;;;;;;;8.07;5.65;;;20.60;99.90;;;20.56;100.00;96798.00;5018425;28;20032;-37
2023/06/30 07:25:26;;;;;;;8.18;6.53;;;20.70;99.90;;;20.56;100.00;96800.69;5021723;28;20036;-37
2023/06/30 07:27:54;;;;;;;9.52;6.80;;;20.70;99.90;;;20.55;100.00;96807.03;5028305;28;20043;-39
2023/06/30 07:30:25;;;;;;;6.75;5.60;;;20.60;99.90;;;20.49;100.00;96808.41;5023377;28;20033;-37
2023/06/30 07:32:51;;;;;;;12.27;7.25;;;20.60;99.90;;;20.38;100.00;96819.19;5015261;28;20037;-37
2023/06/30 07:35:17;;;;;;;10.30;7.15;;;20.50;99.90;;;20.27;100.00;96830.00;5020667;28;20411;-37
2023/06/30 07:40:14;;;;;;;14.68;7.95;;;20.20;99.90;;;19.97;100.00;96836.94;5061832;28;20040;-36
2023/06/30 07:42:40;;;;;;;11.10;8.13;;;20.10;99.90;;;19.77;100.00;96839.47;5053670;28;20028;-36
2023/06/30 07:45:13;;;;;;;12.40;7.93;;;19.90;99.90;;;19.54;100.00;96827.97;5055572;28;20071;-37
2023/06/30 07:47:42;;;;;;;10.00;7.75;;;19.70;99.90;;;19.48;100.00;96838.31;5053077;28;20028;-37
2023/06/30 07:50:11;;;;;;;12.93;8.32;;;19.60;99.90;;;19.45;100.00;96850.09;5055868;28;20130;-37
2023/06/30 07:52:42;;;;;;;11.38;8.63;;;19.50;99.90;;;19.37;100.00;96856.09;5052292;28;20036;-37
2023/06/30 07:55:09;;;;;;;13.05;8.55;;;19.40;99.90;;;19.31;100.00;96855.72;5054350;28;20037;-37
2023/06/30 07:57:35;;;;;;;14.15;8.90;;;19.40;99.90;;;19.19;100.00;96853.06;5057424;28;20039;-37
2023/06/30 08:00:01;;;;;;;11.52;8.57;;;19.30;99.90;;;19.11;100.00;96857.34;5054066;28;20032;-36
2023/06/30 08:02:27;;;;;;;11.38;8.48;;;19.20;99.90;;;19.05;100.00;96856.00;5057129;28;20047;-37
2023/06/30 08:04:52;;;;;;;15.13;9.93;;;19.20;99.90;;;19.02;100.00;96858.91;5057290;28;20024;-37
2023/06/30 08:07:18;;;;;;;20.92;12.43;;;19.10;99.90;;;18.84;100.00;96859.44;5059642;28;20381;-36
2023/06/30 08:09:44;;;;;;;16.67;11.73;;;19.10;99.90;;;18.75;100.00;96857.41;5063805;28;20047;-37
2023/06/30 08:12:09;;;;;;;19.60;11.10;;;19.00;99.90;;;18.76;100.00;96861.81;5052990;28;20039;-37
2023/06/30 08:14:35;;;;;;;16.80;10.52;;;18.90;99.90;;;18.68;100.00;96864.22;5056666;28;21529;-37
2023/06/30 08:17:02;;;;;;;19.45;11.68;;;18.80;99.90;;;18.60;100.00;96864.00;5041887;28;20622;-40
2023/06/30 08:19:28;;;;;;;15.73;10.85;;;18.80;99.90;;;18.57;100.00;96874.91;5058104;28;20107;-37
2023/06/30 08:21:54;;;;;;;24.70;13.70;;;18.70;99.90;;;18.41;100.00;96875.22;5058875;28;20027;-36
2023/06/30 08:24:20;;;;;;;21.83;12.82;;;18.60;99.90;;;18.29;100.00;96874.38;5052471;28;20092;-37
2023/06/30 08:26:46;;;;;;;20.52;12.73;;;18.50;99.90;;;18.12;100.00;96863.16;5053408;28;20032;-37
2023/06/30 08:29:13;;;;;;;22.25;13.30;;;18.40;99.90;;;18.15;100.00;96879.91;5055878;28;20121;-37
2023/06/30 08:31:40;;;;;;;19.05;11.25;;;18.30;99.90;;;18.10;100.00;96873.06;5054768;28;20468;-37
2023/06/30 08:34:08;;;;;;;21.55;13.50;;;18.30;99.90;;;18.10;100.00;96880.25;5053484;28;20028;-38
2023/06/30 08:36:34;;;;;;;21.10;13.43;;;18.30;99.90;;;18.08;100.00;96876.84;5056242;28;20047;-38
2023/06/30 08:38:59;;;;;;;22.08;13.98;;;18.30;99.90;;;18.04;100.00;96876.22;5062306;28;20024;-38
2023/06/30 08:41:26;;;;;;;23.42;14.38;;;18.30;99.90;;;17.90;100.00;96860.41;5054890;28;20035;-38
2023/06/30 08:43:54;;;;;;;22.10;13.18;;;18.20;99.90;;;17.88;100.00;96875.69;5054049;28;20076;-37
2023/06/30 08:46:22;;;;;;;21.48;13.00;;;18.10;99.90;;;17.82;100.00;96879.63;5057925;28;20027;-38
2023/06/30 08:48:49;;;;;;;24.13;14.18;;;18.00;99.90;;;17.82;100.00;96878.75;5058066;28;20505;-38
2023/06/30 08:51:16;;;;;;;22.75;13.85;;;18.00;99.90;;;17.83;100.00;96877.81;5057538;28;20036;-37
2023/06/30 08:53:42;;;;;;;26.73;14.95;;;18.00;99.90;;;17.72;100.00;96874.09;5062142;28;20508;-37
2023/06/30 08:56:08;;;;;;;19.55;13.52;;;17.90;99.90;;;17.75;100.00;96873.88;5054698;28;20124;-37
2023/06/30 08:58:34;;;;;;;23.02;15.40;;;17.90;99.90;;;17.69;100.00;96861.03;5061980;28;20051;-37
2023/06/30 09:01:00;;;;;;;22.00;12.85;;;17.90;99.90;;;17.77;100.00;96873.78;5061684;28;20032;-37
2023/06/30 09:03:26;;;;;;;24.25;14.85;;;17.90;99.90;;;17.80;100.00;96876.22;5064385;28;20497;-37
2023/06/30 09:05:58;;;;;;;18.05;11.82;;;17.90;99.90;;;17.79;100.00;96871.00;5058653;28;20540;-37
2023/06/30 09:08:40;;;;;;;19.10;13.07;;;17.90;99.90;;;17.84;100.00;96864.34;5060494;28;20671;-37
2023/06/30 09:11:08;;;;;;;23.92;13.52;;;17.90;99.90;;;17.87;100.00;96863.28;5058520;28;20778;-37
2023/06/30 09:13:37;;;;;;;21.38;13.43;;;17.90;99.90;;;17.85;100.00;96859.88;5066175;28;20442;-37
2023/06/30 09:16:06;;;;;;;25.75;13.18;;;17.90;99.90;;;17.84;100.00;96861.69;5065420;28;20154;-37
2023/06/30 09:18:33;;;;;;;19.02;12.85;;;17.90;99.90;;;17.91;100.00;96864.78;5060621;28;20402;-37
2023/06/30 09:20:59;;;;;;;15.80;11.48;;;17.90;99.90;;;17.98;100.00;96865.16;5054968;28;20078;-37
2023/06/30 09:23:27;;;;;;;20.33;12.50;;;18.00;99.90;;;17.97;100.00;96844.81;5057502;28;20069;-37
2023/06/30 09:25:53;;;;;;;20.15;11.90;;;18.10;99.90;;;18.10;100.00;96838.38;5060463;28;20466;-36
2023/06/30 09:28:19;;;;;;;15.73;11.10;;;18.20;99.90;;;18.17;100.00;96844.13;5061078;28;20036;-36
2023/06/30 09:30:46;;;;;;;21.92;12.35;;;18.20;99.90;;;18.22;100.00;96843.78;5060443;28;20512;-36
2023/06/30 09:33:17;;;;;;;14.98;11.30;;;18.30;99.90;;;18.26;100.00;96847.91;5057980;28;20060;-36
2023/06/30 09:35:45;;;;;;;16.30;10.93;;;18.30;99.90;;;18.28;100.00;96849.47;5065584;28;20475;-36
2023/06/30 09:38:18;;;;;;;18.08;12.00;;;18.40;99.90;;;18.35;100.00;96857.03;5058114;28;20032;-36
2023/06/30 09:40:47;;;;;;;20.60;11.05;;;18.40;99.90;;;18.45;100.00;96858.03;5048567;28;20116;-37
2023/06/30 09:43:22;;;;;;;14.13;10.10;;;18.50;99.90;;;18.43;100.00;96833.25;5064637;28;20016;-38
2023/06/30 09:45:55;;;;;;;13.38;9.88;;;18.50;99.90;;;18.57;100.00;96854.38;5049365;28;20047;-37
2023/06/30 09:48:27;;;;;;;16.63;11.10;;;18.60;99.90;;;18.55;100.00;96837.63;5052394;28;20033;-38
2023/06/30 09:50:53;;;;;;;15.65;10.85;;;18.60;99.90;;;18.72;100.00;96854.16;5056858;28;20115;-37
2023/06/30 09:53:19;;;;;;;15.98;10.40;;;18.80;99.90;;;18.81;100.00;96853.44;5058230;28;20036;-37
2023/06/30 09:55:50;;;;;;;16.35;9.90;;;18.90;99.90;;;18.88;100.00;96844.00;5056345;28;20037;-38
2023/06/30 09:58:20;;;;;;;15.48;11.05;;;18.90;99.90;;;18.97;100.00;96842.41;5054717;28;20772;-37
2023/06/30 10:00:47;;;;;;;17.13;12.23;;;19.00;99.90;;;19.08;100.00;96861.97;5060410;28;20241;-37
2023/06/30 10:03:19;;;;;;;16.88;10.80;;;19.10;99.90;;;19.15;100.00;96858.78;5055993;28;20028;-37
2023/06/30 10:05:48;;;;;;;19.10;12.52;;;19.20;99.90;;;19.19;100.00;96858.41;5058195;28;20043;-37
2023/06/30 10:08:14;;;;;;;17.35;12.15;;;19.30;99.90;;;19.20;100.00;96849.44;5057295;28;20032;-36
2023/06/30 10:10:42;;;;;;;20.75;12.50;;;19.40;99.90;;;19.38;100.00;96859.59;5051603;28;20514;-36